Flugplatz Taucha

Für EDCT sind keine METAR/TAF Berichte vorhanden.
Es werden die Flugwettermeldungen vom Flugplatz Leipzig Halle in 21 km Entfernung angezeigt.

Bericht für EDDP

vom 08.03. um 18:20 UTC

Wind 2 kt aus 70°

Sichtweite 10 km oder mehr

gute Sicht, keine Wolken < 5000 ft, keine CB, keine Wettererscheinungen (CAVOK)

Temperatur 2.0°C

Taupunkt -6.0°C

Luftfeuchtigkeit 55%

Luftdruck 1022 hPa

keine wesentliche Wetteränderung innerhalb den nächsten 2 Stunden zu erwarten

EDDP 081820Z 07002KT CAVOK 02/M06 Q1022 NOSIG

Prognose für EDDP

vom 08.03. um 17:00 UTC

Zwischen 18:00 UTC und 08:00 UTC

Wind 3 kt aus 80°

Sichtweite 10 km oder mehr

keine signifikanten Wettererscheinungen

keine Wolken


Am 09.03. zwischen 08:00 und 11:00 UTC übergehend zu

Wind 8 kt aus 170°

Sichtweite 10 km oder mehr

keine signifikanten Wettererscheinungen

keine Wolken

TAF EDDP 081700Z 0818/0918 08003KT CAVOK BECMG 0908/0911 17008KT
Impressum